Terminal Aerodrome Forecast
Issued by NWS Corpus Christi, TX

Home | Current Version | Previous Version | Text Only | Print | Product List | Glossary On
Versions: 1 2 3 4 5 6 7 8 9 10 11 12 13
000
FTUS44 KCRP 181129
TAFCRP
TAF
KCRP 181129Z 1812/1912 VRB03KT P6SM SKC
     FM181600 09008KT P6SM SKC
     FM182000 12011KT P6SM FEW035 SCT250
     FM190300 11006KT P6SM SCT020 BKN250
     FM190800 06004KT P6SM VCSH BKN020 BKN250=

USA.gov is the U.S. government's official web portal to all federal, state and local government web resources and services.